ARG308 SAWH-SACO
Flight info
| Callsign | ARG308 |
|---|---|
| Flight time | 3h 37m |
| Altitude | 33000 |
| Route | GRA2A GRA UT108 GUDUX UT700 POTRO/N0462F350 UT700 SIMES SIMES1Q |
| Aircraft | B738/M-SDE2E3FGHIRWXY/LB1 |
Departure
| Time | 2026-05-06 14:52 |
|---|---|
| Airport | Ushuaia - Malvinas Argentinas International Airport (SAWH) |
Arrival
| Time | 2026-05-06 18:29 |
|---|---|
| Airport | Ingeniero Aeronáutico Ambrosio L.V. Taravella International Airport (SACO) |
| Time | Latitude | Longitude | Altitude | Speed | Heading |
|---|---|---|---|---|---|
| 2026-05-06 14:40 | -54.84029 | -68.31180 | 70 ft | 0 kts | 356° |
| 2026-05-06 14:46 | -54.84036 | -68.31179 | 66 ft | 4 kts | 352° |
| 2026-05-06 14:46 | -54.84060 | -68.31164 | 65 ft | 4 kts | 316° |
| 2026-05-06 14:46 | -54.84074 | -68.31132 | 69 ft | 1 kts | 299° |
| 2026-05-06 14:46 | -54.84075 | -68.31131 | 69 ft | 1 kts | 299° |
| 2026-05-06 14:49 | -54.84074 | -68.31134 | 68 ft | 1 kts | 296° |
| 2026-05-06 14:49 | -54.84073 | -68.31160 | 76 ft | 3 kts | 263° |
| 2026-05-06 14:49 | -54.84083 | -68.31211 | 69 ft | 6 kts | 250° |
| 2026-05-06 14:49 | -54.84100 | -68.31288 | 72 ft | 8 kts | 241° |
| 2026-05-06 14:50 | -54.84155 | -68.31332 | 70 ft | 11 kts | 183° |
| 2026-05-06 14:50 | -54.84256 | -68.31323 | 63 ft | 17 kts | 175° |
| 2026-05-06 14:50 | -54.84356 | -68.31314 | 61 ft | 11 kts | 177° |
| 2026-05-06 14:50 | -54.84395 | -68.31228 | 61 ft | 11 kts | 90° |
| 2026-05-06 14:51 | -54.84394 | -68.31192 | 61 ft | 0 kts | 86° |
| 2026-05-06 14:51 | -54.84380 | -68.30848 | 59 ft | 64 kts | 86° |
| 2026-05-06 14:51 | -54.84336 | -68.29688 | 56 ft | 127 kts | 86° |
| 2026-05-06 14:51 | -54.84272 | -68.27854 | 162 ft | 170 kts | 86° |
| 2026-05-06 14:52 | -54.84190 | -68.25750 | 788 ft | 179 kts | 84° |
| 2026-05-06 14:52 | -54.84122 | -68.23456 | 1288 ft | 197 kts | 98° |
| 2026-05-06 14:52 | -54.84821 | -68.21418 | 1868 ft | 207 kts | 140° |
| 2026-05-06 14:52 | -54.85893 | -68.19586 | 2071 ft | 228 kts | 116° |
| 2026-05-06 14:53 | -54.86278 | -68.16885 | 2612 ft | 236 kts | 99° |
| 2026-05-06 14:53 | -54.86620 | -68.13948 | 2878 ft | 257 kts | 103° |
| 2026-05-06 14:53 | -54.87050 | -68.10886 | 3573 ft | 263 kts | 104° |
| 2026-05-06 14:53 | -54.87519 | -68.07807 | 4426 ft | 264 kts | 106° |
| 2026-05-06 14:54 | -54.88016 | -68.04710 | 5196 ft | 268 kts | 107° |
| 2026-05-06 14:54 | -54.88536 | -68.01575 | 5966 ft | 272 kts | 107° |
| 2026-05-06 14:54 | -54.89072 | -67.98409 | 6724 ft | 275 kts | 107° |
| 2026-05-06 14:54 | -54.89617 | -67.95204 | 7419 ft | 279 kts | 107° |
| 2026-05-06 14:55 | -54.90173 | -67.91944 | 8114 ft | 284 kts | 107° |
| 2026-05-06 14:55 | -54.90702 | -67.88615 | 8799 ft | 289 kts | 99° |
| 2026-05-06 14:55 | -54.90605 | -67.85119 | 9474 ft | 294 kts | 73° |
| 2026-05-06 14:55 | -54.89763 | -67.81891 | 10150 ft | 296 kts | 56° |
| 2026-05-06 14:56 | -54.88359 | -67.79187 | 10399 ft | 312 kts | 33° |
| 2026-05-06 14:56 | -54.86470 | -67.77120 | 10608 ft | 331 kts | 29° |
| 2026-05-06 14:56 | -54.84432 | -67.75021 | 10804 ft | 349 kts | 27° |
| 2026-05-06 14:56 | -54.82151 | -67.73582 | 11322 ft | 351 kts | 4° |
| 2026-05-06 14:57 | -54.79721 | -67.73470 | 12051 ft | 349 kts | 357° |
| 2026-05-06 14:57 | -54.77285 | -67.73513 | 12770 ft | 351 kts | 357° |
| 2026-05-06 14:57 | -54.74831 | -67.73573 | 13452 ft | 354 kts | 357° |
| 2026-05-06 14:57 | -54.72360 | -67.73630 | 14113 ft | 356 kts | 357° |
| 2026-05-06 14:58 | -54.69879 | -67.73679 | 14753 ft | 358 kts | 357° |
| 2026-05-06 14:58 | -54.67414 | -67.73720 | 15373 ft | 360 kts | 357° |
| 2026-05-06 14:58 | -54.64895 | -67.73755 | 15968 ft | 363 kts | 357° |
| 2026-05-06 14:58 | -54.62361 | -67.73786 | 16564 ft | 366 kts | 357° |
| 2026-05-06 14:59 | -54.59813 | -67.73813 | 17165 ft | 368 kts | 357° |
| 2026-05-06 14:59 | -54.57240 | -67.73840 | 17748 ft | 371 kts | 357° |
| 2026-05-06 14:59 | -54.54654 | -67.73866 | 18319 ft | 373 kts | 357° |
| 2026-05-06 14:59 | -54.52048 | -67.73891 | 18806 ft | 376 kts | 357° |
| 2026-05-06 15:00 | -54.49424 | -67.73917 | 19298 ft | 378 kts | 357° |
| 2026-05-06 15:00 | -54.46787 | -67.73942 | 19816 ft | 379 kts | 357° |
| 2026-05-06 15:00 | -54.44139 | -67.73967 | 20300 ft | 382 kts | 357° |
| 2026-05-06 15:00 | -54.41473 | -67.73993 | 20770 ft | 384 kts | 357° |
| 2026-05-06 15:01 | -54.38792 | -67.74019 | 21233 ft | 387 kts | 357° |
| 2026-05-06 15:01 | -54.36091 | -67.74045 | 21686 ft | 389 kts | 358° |
| 2026-05-06 15:01 | -54.33372 | -67.74071 | 22142 ft | 392 kts | 358° |
| 2026-05-06 15:01 | -54.30639 | -67.74098 | 22589 ft | 394 kts | 358° |
| 2026-05-06 15:02 | -54.27886 | -67.74124 | 23023 ft | 396 kts | 358° |
| 2026-05-06 15:02 | -54.25120 | -67.74151 | 23448 ft | 399 kts | 358° |
| 2026-05-06 15:02 | -54.22340 | -67.74177 | 23821 ft | 401 kts | 358° |
| 2026-05-06 15:02 | -54.19542 | -67.74203 | 24200 ft | 402 kts | 357° |
| 2026-05-06 15:03 | -54.16748 | -67.74230 | 24533 ft | 403 kts | 357° |
| 2026-05-06 15:03 | -54.13923 | -67.74257 | 24823 ft | 407 kts | 357° |
| 2026-05-06 15:03 | -54.11086 | -67.74285 | 25147 ft | 409 kts | 357° |
| 2026-05-06 15:03 | -54.08235 | -67.74312 | 25496 ft | 410 kts | 357° |
| 2026-05-06 15:04 | -54.05378 | -67.74339 | 25831 ft | 412 kts | 357° |
| 2026-05-06 15:04 | -54.02509 | -67.74366 | 26147 ft | 413 kts | 357° |
| 2026-05-06 15:04 | -53.99624 | -67.74393 | 26452 ft | 415 kts | 357° |
| 2026-05-06 15:04 | -53.96730 | -67.74421 | 26753 ft | 417 kts | 357° |
| 2026-05-06 15:05 | -53.93818 | -67.74448 | 27058 ft | 419 kts | 357° |
| 2026-05-06 15:05 | -53.90898 | -67.74475 | 27350 ft | 421 kts | 356° |
| 2026-05-06 15:05 | -53.88007 | -67.74502 | 27631 ft | 422 kts | 356° |
| 2026-05-06 15:05 | -53.85024 | -67.74530 | 27910 ft | 424 kts | 356° |
| 2026-05-06 15:06 | -53.82107 | -67.74558 | 28186 ft | 425 kts | 356° |
| 2026-05-06 15:06 | -53.79145 | -67.74585 | 28491 ft | 426 kts | 357° |
| 2026-05-06 15:06 | -53.76187 | -67.74191 | 28847 ft | 431 kts | 10° |
| 2026-05-06 15:06 | -53.73309 | -67.72763 | 29313 ft | 430 kts | 13° |
| 2026-05-06 15:07 | -53.70447 | -67.71319 | 29703 ft | 429 kts | 12° |
| 2026-05-06 15:07 | -53.67584 | -67.69913 | 30007 ft | 429 kts | 12° |
| 2026-05-06 15:07 | -53.64718 | -67.68532 | 30322 ft | 428 kts | 11° |
| 2026-05-06 15:07 | -53.61860 | -67.67170 | 30621 ft | 427 kts | 11° |
| 2026-05-06 15:08 | -53.58998 | -67.65816 | 30824 ft | 427 kts | 11° |
| 2026-05-06 15:08 | -53.56130 | -67.64465 | 31039 ft | 428 kts | 11° |
| 2026-05-06 15:08 | -53.53265 | -67.63117 | 31319 ft | 428 kts | 11° |
| 2026-05-06 15:08 | -53.50398 | -67.61769 | 31604 ft | 427 kts | 11° |
| 2026-05-06 15:09 | -53.47538 | -67.60425 | 31864 ft | 427 kts | 11° |
| 2026-05-06 15:09 | -53.44675 | -67.59082 | 32099 ft | 427 kts | 11° |
| 2026-05-06 15:09 | -53.41810 | -67.57739 | 32331 ft | 427 kts | 11° |
| 2026-05-06 15:09 | -53.38947 | -67.56399 | 32577 ft | 427 kts | 11° |
| 2026-05-06 15:10 | -53.36091 | -67.55063 | 32849 ft | 426 kts | 11° |
| 2026-05-06 15:10 | -53.33234 | -67.53729 | 32990 ft | 428 kts | 11° |
| 2026-05-06 15:10 | -53.30356 | -67.52389 | 32985 ft | 429 kts | 11° |
| 2026-05-06 15:11 | -53.24620 | -67.49719 | 32972 ft | 426 kts | 11° |
| 2026-05-06 15:11 | -53.18935 | -67.47079 | 32944 ft | 423 kts | 11° |
| 2026-05-06 15:12 | -53.13284 | -67.44464 | 32971 ft | 421 kts | 10° |
| 2026-05-06 15:12 | -53.07647 | -67.41865 | 32987 ft | 420 kts | 10° |
| 2026-05-06 15:13 | -53.02013 | -67.39273 | 32988 ft | 421 kts | 10° |
| 2026-05-06 15:13 | -52.96359 | -67.36680 | 32985 ft | 422 kts | 10° |
| 2026-05-06 15:14 | -52.90684 | -67.34082 | 32986 ft | 424 kts | 10° |
| 2026-05-06 15:14 | -52.84987 | -67.31481 | 32984 ft | 425 kts | 10° |
| 2026-05-06 15:15 | -52.79271 | -67.28877 | 32974 ft | 427 kts | 10° |
| 2026-05-06 15:15 | -52.73541 | -67.26391 | 32975 ft | 423 kts | 5° |
| 2026-05-06 15:16 | -52.67746 | -67.24916 | 32982 ft | 421 kts | 2° |
| 2026-05-06 15:16 | -52.61943 | -67.23605 | 32990 ft | 421 kts | 2° |
| 2026-05-06 15:17 | -52.56151 | -67.22250 | 32985 ft | 421 kts | 3° |
| 2026-05-06 15:17 | -52.50361 | -67.20854 | 32983 ft | 420 kts | 3° |
| 2026-05-06 15:18 | -52.44587 | -67.19451 | 32987 ft | 419 kts | 3° |
| 2026-05-06 15:18 | -52.38873 | -67.18065 | 32990 ft | 418 kts | 2° |
| 2026-05-06 15:19 | -52.33093 | -67.16668 | 32987 ft | 417 kts | 2° |
| 2026-05-06 15:19 | -52.27405 | -67.15298 | 32976 ft | 415 kts | 2° |
| 2026-05-06 15:20 | -52.21692 | -67.13925 | 32984 ft | 415 kts | 2° |
| 2026-05-06 15:20 | -52.15983 | -67.12557 | 32989 ft | 415 kts | 2° |
| 2026-05-06 15:21 | -52.10272 | -67.11193 | 32990 ft | 415 kts | 2° |
| 2026-05-06 15:21 | -52.04555 | -67.09830 | 32991 ft | 415 kts | 2° |
| 2026-05-06 15:22 | -51.98827 | -67.08467 | 32991 ft | 416 kts | 2° |
| 2026-05-06 15:22 | -51.93100 | -67.07108 | 32994 ft | 416 kts | 2° |
| 2026-05-06 15:23 | -51.87365 | -67.05751 | 32991 ft | 416 kts | 2° |
| 2026-05-06 15:23 | -51.81635 | -67.04398 | 32961 ft | 416 kts | 2° |
| 2026-05-06 15:24 | -51.75907 | -67.03049 | 32985 ft | 416 kts | 2° |
| 2026-05-06 15:24 | -51.70170 | -67.01703 | 32982 ft | 417 kts | 2° |
| 2026-05-06 15:25 | -51.64431 | -67.00359 | 32992 ft | 417 kts | 2° |
| 2026-05-06 15:25 | -51.58679 | -66.99015 | 32992 ft | 418 kts | 2° |
| 2026-05-06 15:26 | -51.52920 | -66.97672 | 32987 ft | 418 kts | 2° |
| 2026-05-06 15:26 | -51.47153 | -66.96331 | 32986 ft | 419 kts | 2° |
| 2026-05-06 15:27 | -51.41424 | -66.95002 | 32978 ft | 419 kts | 2° |
| 2026-05-06 15:27 | -51.35660 | -66.93667 | 32986 ft | 418 kts | 2° |
| 2026-05-06 15:28 | -51.29896 | -66.92336 | 32990 ft | 418 kts | 2° |
| 2026-05-06 15:28 | -51.24133 | -66.91010 | 32992 ft | 419 kts | 2° |
| 2026-05-06 15:29 | -51.18359 | -66.89684 | 32985 ft | 419 kts | 2° |
| 2026-05-06 15:29 | -51.12587 | -66.88362 | 32975 ft | 419 kts | 2° |
| 2026-05-06 15:30 | -51.06805 | -66.87041 | 32981 ft | 420 kts | 2° |
| 2026-05-06 15:30 | -51.01021 | -66.85723 | 32980 ft | 420 kts | 2° |
| 2026-05-06 15:31 | -50.95237 | -66.84408 | 32983 ft | 420 kts | 2° |
| 2026-05-06 15:31 | -50.90429 | -66.83317 | 32963 ft | 420 kts | 2° |
| 2026-05-06 15:32 | -50.81759 | -66.81355 | 32968 ft | 419 kts | 2° |
| 2026-05-06 15:32 | -50.75979 | -66.80053 | 32976 ft | 420 kts | 2° |
| 2026-05-06 15:33 | -50.70189 | -66.78751 | 32974 ft | 421 kts | 2° |
| 2026-05-06 15:33 | -50.64391 | -66.77451 | 32964 ft | 421 kts | 2° |
| 2026-05-06 15:34 | -50.58589 | -66.76152 | 32975 ft | 421 kts | 2° |
| 2026-05-06 15:34 | -50.52784 | -66.74856 | 32973 ft | 421 kts | 2° |
| 2026-05-06 15:35 | -50.46984 | -66.73564 | 32970 ft | 421 kts | 2° |
| 2026-05-06 15:35 | -50.41180 | -66.72275 | 32970 ft | 421 kts | 1° |
| 2026-05-06 15:36 | -50.35392 | -66.70992 | 32965 ft | 420 kts | 1° |
| 2026-05-06 15:36 | -50.29613 | -66.69714 | 32969 ft | 419 kts | 1° |
| 2026-05-06 15:37 | -50.23851 | -66.68444 | 32973 ft | 418 kts | 1° |
| 2026-05-06 15:37 | -50.18128 | -66.67185 | 32965 ft | 417 kts | 1° |
| 2026-05-06 15:38 | -50.12383 | -66.65925 | 32954 ft | 417 kts | 1° |
| 2026-05-06 15:38 | -50.06642 | -66.64668 | 32955 ft | 416 kts | 1° |
| 2026-05-06 15:39 | -50.00916 | -66.63418 | 32959 ft | 415 kts | 1° |
| 2026-05-06 15:39 | -49.95197 | -66.62172 | 32953 ft | 415 kts | 1° |
| 2026-05-06 15:40 | -49.89479 | -66.60930 | 32961 ft | 415 kts | 1° |
| 2026-05-06 15:40 | -49.83759 | -66.59690 | 32960 ft | 415 kts | 1° |
| 2026-05-06 15:41 | -49.78029 | -66.58452 | 32970 ft | 416 kts | 1° |
| 2026-05-06 15:41 | -49.72297 | -66.57215 | 32967 ft | 416 kts | 1° |
| 2026-05-06 15:42 | -49.66551 | -66.55978 | 32968 ft | 417 kts | 1° |
| 2026-05-06 15:42 | -49.60801 | -66.54744 | 32953 ft | 417 kts | 1° |
| 2026-05-06 15:43 | -49.55048 | -66.53510 | 32967 ft | 417 kts | 1° |
| 2026-05-06 15:43 | -49.49299 | -66.52281 | 32951 ft | 417 kts | 1° |
| 2026-05-06 15:44 | -49.43591 | -66.51065 | 32966 ft | 417 kts | 0° |
| 2026-05-06 15:44 | -49.37805 | -66.49835 | 32968 ft | 417 kts | 0° |
| 2026-05-06 15:45 | -49.32092 | -66.48622 | 32966 ft | 417 kts | 1° |
| 2026-05-06 15:45 | -49.26337 | -66.47404 | 32968 ft | 418 kts | 1° |
| 2026-05-06 15:46 | -49.20577 | -66.46187 | 32970 ft | 418 kts | 1° |
| 2026-05-06 15:46 | -49.14813 | -66.44973 | 32969 ft | 418 kts | 1° |
| 2026-05-06 15:47 | -49.09054 | -66.43762 | 32961 ft | 418 kts | 1° |
| 2026-05-06 15:47 | -49.03292 | -66.42553 | 32970 ft | 418 kts | 1° |
| 2026-05-06 15:48 | -48.97527 | -66.41347 | 32969 ft | 418 kts | 1° |
| 2026-05-06 15:48 | -48.91748 | -66.40142 | 32970 ft | 419 kts | 1° |
| 2026-05-06 15:49 | -48.85960 | -66.38937 | 32953 ft | 420 kts | 1° |
| 2026-05-06 15:49 | -48.80158 | -66.37731 | 32971 ft | 421 kts | 1° |
| 2026-05-06 15:50 | -48.74355 | -66.36528 | 32975 ft | 421 kts | 1° |
| 2026-05-06 15:50 | -48.68545 | -66.35326 | 32973 ft | 422 kts | 1° |
| 2026-05-06 15:51 | -48.62727 | -66.34126 | 32953 ft | 422 kts | 1° |
| 2026-05-06 15:51 | -48.56896 | -66.32925 | 32968 ft | 422 kts | 1° |
| 2026-05-06 15:52 | -48.51109 | -66.31737 | 32977 ft | 423 kts | 1° |
| 2026-05-06 15:52 | -48.45229 | -66.30532 | 32978 ft | 423 kts | 1° |
| 2026-05-06 15:53 | -48.39428 | -66.29346 | 32975 ft | 424 kts | 1° |
| 2026-05-06 15:53 | -48.33586 | -66.28154 | 32976 ft | 424 kts | 1° |
| 2026-05-06 15:54 | -48.27746 | -66.26966 | 32976 ft | 423 kts | 1° |
| 2026-05-06 15:54 | -48.21908 | -66.25780 | 32979 ft | 423 kts | 1° |
| 2026-05-06 15:55 | -48.16075 | -66.24599 | 32966 ft | 423 kts | 1° |
| 2026-05-06 15:55 | -48.10245 | -66.23420 | 32968 ft | 422 kts | 0° |
| 2026-05-06 15:56 | -48.04416 | -66.22245 | 32978 ft | 423 kts | 0° |
| 2026-05-06 15:56 | -47.98584 | -66.21076 | 32973 ft | 423 kts | 0° |
| 2026-05-06 15:57 | -47.92744 | -66.19912 | 32975 ft | 424 kts | 0° |
| 2026-05-06 15:57 | -47.86893 | -66.18746 | 32965 ft | 424 kts | 0° |
| 2026-05-06 15:58 | -47.81040 | -66.17582 | 32976 ft | 424 kts | 0° |
| 2026-05-06 15:58 | -47.75188 | -66.16420 | 32955 ft | 424 kts | 0° |
| 2026-05-06 15:59 | -47.69338 | -66.15262 | 32958 ft | 424 kts | 0° |
| 2026-05-06 15:59 | -47.63486 | -66.14106 | 32959 ft | 424 kts | 0° |
| 2026-05-06 16:00 | -47.57635 | -66.12953 | 32963 ft | 424 kts | 0° |
| 2026-05-06 16:00 | -47.51792 | -66.11802 | 32973 ft | 423 kts | 0° |
| 2026-05-06 16:01 | -47.45957 | -66.10655 | 32963 ft | 423 kts | 0° |
| 2026-05-06 16:01 | -47.40168 | -66.09520 | 32965 ft | 422 kts | 0° |
| 2026-05-06 16:02 | -47.34345 | -66.08380 | 32930 ft | 421 kts | 0° |
| 2026-05-06 16:02 | -47.28558 | -66.07249 | 32951 ft | 419 kts | 0° |
| 2026-05-06 16:03 | -47.22785 | -66.06124 | 32961 ft | 418 kts | 0° |
| 2026-05-06 16:03 | -47.17033 | -66.05006 | 32956 ft | 416 kts | 0° |
| 2026-05-06 16:04 | -47.11299 | -66.03894 | 32965 ft | 415 kts | 0° |
| 2026-05-06 16:04 | -47.05570 | -66.02785 | 32959 ft | 415 kts | 0° |
| 2026-05-06 16:05 | -46.99850 | -66.01681 | 32956 ft | 414 kts | 0° |
| 2026-05-06 16:05 | -46.94133 | -66.00579 | 32936 ft | 414 kts | 0° |
| 2026-05-06 16:06 | -46.88417 | -65.99480 | 32951 ft | 415 kts | 0° |
| 2026-05-06 16:06 | -46.82683 | -65.98381 | 32960 ft | 417 kts | 0° |
| 2026-05-06 16:07 | -46.76921 | -65.97279 | 32956 ft | 419 kts | 0° |
| 2026-05-06 16:07 | -46.71126 | -65.96172 | 32939 ft | 421 kts | 1° |
| 2026-05-06 16:08 | -46.65311 | -65.95062 | 32950 ft | 422 kts | 1° |
| 2026-05-06 16:08 | -46.59472 | -65.93951 | 32947 ft | 423 kts | 1° |
| 2026-05-06 16:09 | -46.53635 | -65.92842 | 32948 ft | 423 kts | 1° |
| 2026-05-06 16:09 | -46.47798 | -65.91735 | 32930 ft | 423 kts | 1° |
| 2026-05-06 16:10 | -46.41969 | -65.90633 | 32943 ft | 422 kts | 1° |
| 2026-05-06 16:10 | -46.36154 | -65.89536 | 32948 ft | 421 kts | 1° |
| 2026-05-06 16:11 | -46.30350 | -65.88443 | 32944 ft | 421 kts | 1° |
| 2026-05-06 16:11 | -46.24548 | -65.87353 | 32945 ft | 420 kts | 1° |
| 2026-05-06 16:12 | -46.18756 | -65.86230 | 32945 ft | 420 kts | 2° |
| 2026-05-06 16:12 | -46.12976 | -65.84968 | 32945 ft | 420 kts | 2° |
| 2026-05-06 16:13 | -46.07238 | -65.83698 | 32940 ft | 420 kts | 2° |
| 2026-05-06 16:13 | -46.01465 | -65.82437 | 32931 ft | 419 kts | 2° |
| 2026-05-06 16:14 | -45.95694 | -65.81188 | 32943 ft | 419 kts | 2° |
| 2026-05-06 16:14 | -45.89927 | -65.79946 | 32939 ft | 419 kts | 2° |
| 2026-05-06 16:15 | -45.84159 | -65.78706 | 32937 ft | 419 kts | 2° |
| 2026-05-06 16:15 | -45.78394 | -65.77470 | 32929 ft | 419 kts | 2° |
| 2026-05-06 16:16 | -45.72637 | -65.76237 | 32915 ft | 418 kts | 2° |
| 2026-05-06 16:16 | -45.66880 | -65.75007 | 32923 ft | 418 kts | 2° |
| 2026-05-06 16:17 | -45.61123 | -65.73779 | 32926 ft | 418 kts | 2° |
| 2026-05-06 16:17 | -45.55373 | -65.72556 | 32922 ft | 418 kts | 2° |
| 2026-05-06 16:18 | -45.49616 | -65.71334 | 32931 ft | 418 kts | 2° |
| 2026-05-06 16:18 | -45.43866 | -65.70116 | 32926 ft | 418 kts | 2° |
| 2026-05-06 16:19 | -45.39073 | -65.69102 | 32919 ft | 419 kts | 2° |
| 2026-05-06 16:19 | -45.32337 | -65.67680 | 32909 ft | 418 kts | 2° |
| 2026-05-06 16:20 | -45.27549 | -65.66671 | 32910 ft | 418 kts | 2° |
| 2026-05-06 16:20 | -45.21791 | -65.65461 | 32903 ft | 419 kts | 2° |
| 2026-05-06 16:21 | -45.16035 | -65.64253 | 32904 ft | 418 kts | 2° |
| 2026-05-06 16:21 | -45.10280 | -65.63048 | 32900 ft | 418 kts | 3° |
| 2026-05-06 16:22 | -45.04531 | -65.61846 | 32907 ft | 418 kts | 3° |
| 2026-05-06 16:22 | -44.98780 | -65.60647 | 32899 ft | 418 kts | 2° |
| 2026-05-06 16:23 | -44.93019 | -65.59453 | 32897 ft | 419 kts | 2° |
| 2026-05-06 16:23 | -44.87237 | -65.58259 | 32882 ft | 421 kts | 3° |
| 2026-05-06 16:24 | -44.81448 | -65.57062 | 32901 ft | 420 kts | 3° |
| 2026-05-06 16:24 | -44.75658 | -65.55868 | 32886 ft | 421 kts | 3° |
| 2026-05-06 16:25 | -44.69853 | -65.54673 | 32893 ft | 421 kts | 3° |
| 2026-05-06 16:25 | -44.64091 | -65.53489 | 32895 ft | 421 kts | 3° |
| 2026-05-06 16:26 | -44.58294 | -65.52301 | 32882 ft | 421 kts | 3° |
| 2026-05-06 16:26 | -44.52504 | -65.51116 | 32890 ft | 421 kts | 3° |
| 2026-05-06 16:27 | -44.46710 | -65.49934 | 32871 ft | 420 kts | 3° |
| 2026-05-06 16:27 | -44.40926 | -65.48755 | 32883 ft | 420 kts | 3° |
| 2026-05-06 16:28 | -44.35150 | -65.47581 | 32883 ft | 419 kts | 3° |
| 2026-05-06 16:28 | -44.29381 | -65.46410 | 32885 ft | 419 kts | 3° |
| 2026-05-06 16:29 | -44.23555 | -65.45235 | 32858 ft | 428 kts | 4° |
| 2026-05-06 16:29 | -44.17604 | -65.44034 | 32873 ft | 433 kts | 4° |
| 2026-05-06 16:30 | -44.12648 | -65.43032 | 32875 ft | 433 kts | 4° |
| 2026-05-06 16:30 | -44.05674 | -65.41625 | 32876 ft | 433 kts | 4° |
| 2026-05-06 16:31 | -43.99707 | -65.40425 | 32875 ft | 433 kts | 4° |
| 2026-05-06 16:31 | -43.93740 | -65.39229 | 32871 ft | 433 kts | 4° |
| 2026-05-06 16:32 | -43.87823 | -65.38045 | 32869 ft | 432 kts | 4° |
| 2026-05-06 16:32 | -43.81874 | -65.36857 | 32858 ft | 431 kts | 4° |
| 2026-05-06 16:33 | -43.75949 | -65.35676 | 32866 ft | 430 kts | 4° |
| 2026-05-06 16:34 | -43.67069 | -65.33912 | 32869 ft | 429 kts | 4° |
| 2026-05-06 16:34 | -43.61159 | -65.32740 | 32854 ft | 430 kts | 4° |
| 2026-05-06 16:35 | -43.55242 | -65.31569 | 32859 ft | 430 kts | 4° |
| 2026-05-06 16:35 | -43.49317 | -65.30399 | 32843 ft | 430 kts | 4° |
| 2026-05-06 16:36 | -43.43402 | -65.29233 | 32848 ft | 429 kts | 4° |
| 2026-05-06 16:36 | -43.37501 | -65.28072 | 32848 ft | 428 kts | 4° |
| 2026-05-06 16:37 | -43.31614 | -65.26916 | 32872 ft | 428 kts | 4° |
| 2026-05-06 16:37 | -43.25709 | -65.25759 | 32855 ft | 429 kts | 4° |
| 2026-05-06 16:38 | -43.19801 | -65.24605 | 32848 ft | 429 kts | 4° |
| 2026-05-06 16:38 | -43.13885 | -65.23599 | 32844 ft | 428 kts | 2° |
| 2026-05-06 16:39 | -43.08016 | -65.22676 | 32853 ft | 428 kts | 2° |
| 2026-05-06 16:39 | -43.02100 | -65.21740 | 32852 ft | 428 kts | 2° |
| 2026-05-06 16:40 | -42.96171 | -65.20790 | 32832 ft | 429 kts | 3° |
| 2026-05-06 16:40 | -42.90242 | -65.19834 | 32833 ft | 429 kts | 3° |
| 2026-05-06 16:41 | -42.84302 | -65.18877 | 32824 ft | 430 kts | 3° |
| 2026-05-06 16:41 | -42.78357 | -65.17921 | 32800 ft | 431 kts | 3° |
| 2026-05-06 16:42 | -42.72404 | -65.16965 | 32813 ft | 431 kts | 3° |
| 2026-05-06 16:42 | -42.66454 | -65.16012 | 32830 ft | 431 kts | 3° |
| 2026-05-06 16:43 | -42.60497 | -65.15060 | 32818 ft | 431 kts | 3° |
| 2026-05-06 16:43 | -42.54538 | -65.14109 | 32826 ft | 431 kts | 3° |
| 2026-05-06 16:44 | -42.48565 | -65.13159 | 32827 ft | 432 kts | 4° |
| 2026-05-06 16:44 | -42.42588 | -65.12209 | 32813 ft | 433 kts | 3° |
| 2026-05-06 16:45 | -42.36605 | -65.11260 | 32815 ft | 432 kts | 4° |
| 2026-05-06 16:45 | -42.30634 | -65.10314 | 32817 ft | 432 kts | 4° |
| 2026-05-06 16:46 | -42.24661 | -65.09371 | 32819 ft | 432 kts | 4° |
| 2026-05-06 16:46 | -42.18690 | -65.08429 | 32809 ft | 432 kts | 4° |
| 2026-05-06 16:47 | -42.12776 | -65.07498 | 32810 ft | 430 kts | 4° |
| 2026-05-06 16:47 | -42.06790 | -65.06558 | 32816 ft | 430 kts | 4° |
| 2026-05-06 16:48 | -42.00851 | -65.05627 | 32810 ft | 429 kts | 4° |
| 2026-05-06 16:48 | -41.94952 | -65.04704 | 32812 ft | 429 kts | 4° |
| 2026-05-06 16:49 | -41.89020 | -65.03777 | 32813 ft | 429 kts | 4° |
| 2026-05-06 16:49 | -41.83086 | -65.02852 | 32810 ft | 429 kts | 4° |
| 2026-05-06 16:50 | -41.77154 | -65.01929 | 32807 ft | 429 kts | 4° |
| 2026-05-06 16:50 | -41.71227 | -65.01008 | 32804 ft | 429 kts | 4° |
| 2026-05-06 16:51 | -41.65301 | -65.00089 | 32806 ft | 428 kts | 4° |
| 2026-05-06 16:51 | -41.59382 | -64.99173 | 32794 ft | 428 kts | 4° |
| 2026-05-06 16:52 | -41.53473 | -64.98260 | 32801 ft | 427 kts | 4° |
| 2026-05-06 16:52 | -41.47564 | -64.97349 | 32784 ft | 427 kts | 4° |
| 2026-05-06 16:53 | -41.41674 | -64.96442 | 32788 ft | 426 kts | 4° |
| 2026-05-06 16:53 | -41.35796 | -64.95539 | 32783 ft | 424 kts | 4° |
| 2026-05-06 16:54 | -41.29936 | -64.94640 | 32791 ft | 424 kts | 4° |
| 2026-05-06 16:54 | -41.24073 | -64.93743 | 32783 ft | 424 kts | 4° |
| 2026-05-06 16:55 | -41.18216 | -64.92848 | 32772 ft | 423 kts | 4° |
| 2026-05-06 16:55 | -41.12374 | -64.91957 | 32780 ft | 423 kts | 4° |
| 2026-05-06 16:56 | -41.06529 | -64.91067 | 32777 ft | 423 kts | 4° |
| 2026-05-06 16:56 | -41.00676 | -64.90178 | 32775 ft | 423 kts | 4° |
| 2026-05-06 16:57 | -40.94879 | -64.89299 | 32774 ft | 423 kts | 4° |
| 2026-05-06 16:57 | -40.89022 | -64.88412 | 32776 ft | 424 kts | 4° |
| 2026-05-06 16:58 | -40.83166 | -64.87526 | 32777 ft | 424 kts | 4° |
| 2026-05-06 16:58 | -40.77290 | -64.86640 | 32767 ft | 425 kts | 4° |
| 2026-05-06 16:59 | -40.71449 | -64.85760 | 32762 ft | 425 kts | 4° |
| 2026-05-06 16:59 | -40.65569 | -64.84875 | 32774 ft | 425 kts | 4° |
| 2026-05-06 17:00 | -40.59686 | -64.83992 | 32771 ft | 425 kts | 4° |
| 2026-05-06 17:00 | -40.53773 | -64.83106 | 32764 ft | 424 kts | 3° |
| 2026-05-06 17:01 | -40.47948 | -64.82235 | 32768 ft | 424 kts | 3° |
| 2026-05-06 17:01 | -40.42095 | -64.81360 | 32768 ft | 423 kts | 3° |
| 2026-05-06 17:02 | -40.36239 | -64.80488 | 32767 ft | 423 kts | 3° |
| 2026-05-06 17:02 | -40.30390 | -64.79617 | 32770 ft | 423 kts | 3° |
| 2026-05-06 17:03 | -40.24544 | -64.78749 | 32762 ft | 423 kts | 3° |
| 2026-05-06 17:03 | -40.18700 | -64.77882 | 32765 ft | 423 kts | 3° |
| 2026-05-06 17:04 | -40.12860 | -64.77017 | 32759 ft | 422 kts | 3° |
| 2026-05-06 17:04 | -40.07032 | -64.76156 | 32760 ft | 421 kts | 3° |
| 2026-05-06 17:05 | -40.01211 | -64.75299 | 32763 ft | 421 kts | 3° |
| 2026-05-06 17:05 | -39.95393 | -64.74446 | 32742 ft | 420 kts | 2° |
| 2026-05-06 17:06 | -39.89586 | -64.73594 | 32758 ft | 420 kts | 2° |
| 2026-05-06 17:06 | -39.83824 | -64.72751 | 32754 ft | 419 kts | 2° |
| 2026-05-06 17:07 | -39.78027 | -64.71905 | 32753 ft | 419 kts | 2° |
| 2026-05-06 17:07 | -39.72237 | -64.71060 | 32750 ft | 418 kts | 2° |
| 2026-05-06 17:08 | -39.66450 | -64.70218 | 32758 ft | 419 kts | 2° |
| 2026-05-06 17:08 | -39.60655 | -64.69376 | 32752 ft | 419 kts | 2° |
| 2026-05-06 17:09 | -39.55792 | -64.68670 | 32754 ft | 420 kts | 2° |
| 2026-05-06 17:09 | -39.49986 | -64.67828 | 32744 ft | 420 kts | 2° |
| 2026-05-06 17:10 | -39.44173 | -64.66987 | 32756 ft | 421 kts | 2° |
| 2026-05-06 17:10 | -39.38383 | -64.66150 | 32751 ft | 421 kts | 2° |
| 2026-05-06 17:11 | -39.32554 | -64.65309 | 32742 ft | 422 kts | 1° |
| 2026-05-06 17:11 | -39.26725 | -64.64469 | 32746 ft | 422 kts | 1° |
| 2026-05-06 17:12 | -39.20895 | -64.63631 | 32745 ft | 421 kts | 1° |
| 2026-05-06 17:12 | -39.15068 | -64.62795 | 32737 ft | 421 kts | 1° |
| 2026-05-06 17:13 | -39.09250 | -64.61961 | 32734 ft | 420 kts | 1° |
| 2026-05-06 17:13 | -39.03447 | -64.61130 | 32735 ft | 419 kts | 1° |
| 2026-05-06 17:14 | -38.97661 | -64.60304 | 32734 ft | 418 kts | 1° |
| 2026-05-06 17:14 | -38.91874 | -64.59479 | 32731 ft | 418 kts | 1° |
| 2026-05-06 17:15 | -38.86104 | -64.58657 | 32733 ft | 416 kts | 0° |
| 2026-05-06 17:15 | -38.80360 | -64.57835 | 32725 ft | 415 kts | 0° |
| 2026-05-06 17:16 | -38.74632 | -64.57008 | 32727 ft | 414 kts | 0° |
| 2026-05-06 17:16 | -38.68914 | -64.56185 | 32723 ft | 413 kts | 0° |
| 2026-05-06 17:17 | -38.63218 | -64.55367 | 32721 ft | 411 kts | 0° |
| 2026-05-06 17:17 | -38.57535 | -64.54552 | 32720 ft | 410 kts | 0° |
| 2026-05-06 17:18 | -38.51870 | -64.53741 | 32722 ft | 409 kts | 0° |
| 2026-05-06 17:18 | -38.46214 | -64.52933 | 32711 ft | 409 kts | 0° |
| 2026-05-06 17:19 | -38.40572 | -64.52128 | 32726 ft | 408 kts | 0° |
| 2026-05-06 17:19 | -38.34932 | -64.51325 | 32720 ft | 407 kts | 0° |
| 2026-05-06 17:20 | -38.29340 | -64.50529 | 32725 ft | 407 kts | 0° |
| 2026-05-06 17:20 | -38.23715 | -64.49730 | 32723 ft | 407 kts | 0° |
| 2026-05-06 17:21 | -38.18093 | -64.48933 | 32725 ft | 407 kts | 0° |
| 2026-05-06 17:21 | -38.12464 | -64.48135 | 32725 ft | 407 kts | 0° |
| 2026-05-06 17:22 | -38.06836 | -64.47342 | 32724 ft | 407 kts | 0° |
| 2026-05-06 17:22 | -38.01204 | -64.46553 | 32704 ft | 407 kts | 0° |
| 2026-05-06 17:23 | -37.95590 | -64.45766 | 32717 ft | 405 kts | 0° |
| 2026-05-06 17:23 | -37.89987 | -64.44983 | 32724 ft | 405 kts | 0° |
| 2026-05-06 17:24 | -37.84389 | -64.44201 | 32722 ft | 404 kts | 0° |
| 2026-05-06 17:24 | -37.78794 | -64.43421 | 32687 ft | 404 kts | 360° |
| 2026-05-06 17:25 | -37.73205 | -64.42642 | 32709 ft | 404 kts | 360° |
| 2026-05-06 17:25 | -37.67626 | -64.41866 | 32720 ft | 403 kts | 360° |
| 2026-05-06 17:26 | -37.62041 | -64.41091 | 32724 ft | 403 kts | 360° |
| 2026-05-06 17:26 | -37.56463 | -64.40318 | 32704 ft | 404 kts | 359° |
| 2026-05-06 17:27 | -37.50879 | -64.39545 | 32715 ft | 403 kts | 359° |
| 2026-05-06 17:27 | -37.45339 | -64.38779 | 32714 ft | 404 kts | 359° |
| 2026-05-06 17:28 | -37.39748 | -64.38007 | 32712 ft | 404 kts | 359° |
| 2026-05-06 17:28 | -37.34150 | -64.37235 | 32686 ft | 404 kts | 359° |
| 2026-05-06 17:29 | -37.28564 | -64.36487 | 32702 ft | 403 kts | 358° |
| 2026-05-06 17:29 | -37.22989 | -64.35754 | 32646 ft | 403 kts | 358° |
| 2026-05-06 17:30 | -37.17431 | -64.35023 | 32697 ft | 401 kts | 358° |
| 2026-05-06 17:30 | -37.11878 | -64.34293 | 32683 ft | 401 kts | 358° |
| 2026-05-06 17:31 | -37.06326 | -64.33563 | 32701 ft | 401 kts | 358° |
| 2026-05-06 17:31 | -37.00773 | -64.32834 | 32699 ft | 402 kts | 358° |
| 2026-05-06 17:32 | -36.95208 | -64.32104 | 32699 ft | 402 kts | 358° |
| 2026-05-06 17:32 | -36.89637 | -64.31374 | 32668 ft | 403 kts | 357° |
| 2026-05-06 17:33 | -36.84062 | -64.30645 | 32694 ft | 403 kts | 357° |
| 2026-05-06 17:33 | -36.78484 | -64.29917 | 32707 ft | 404 kts | 358° |
| 2026-05-06 17:34 | -36.72898 | -64.29188 | 32722 ft | 404 kts | 357° |
| 2026-05-06 17:34 | -36.67300 | -64.28459 | 32696 ft | 405 kts | 357° |
| 2026-05-06 17:35 | -36.61701 | -64.27729 | 32714 ft | 404 kts | 357° |
| 2026-05-06 17:35 | -36.56107 | -64.26970 | 32684 ft | 405 kts | 358° |
| 2026-05-06 17:36 | -36.47707 | -64.25570 | 32686 ft | 406 kts | 359° |
| 2026-05-06 17:36 | -36.42113 | -64.24626 | 32682 ft | 405 kts | 359° |
| 2026-05-06 17:37 | -36.36557 | -64.23703 | 32689 ft | 405 kts | 359° |
| 2026-05-06 17:37 | -36.30938 | -64.22778 | 32683 ft | 405 kts | 359° |
| 2026-05-06 17:38 | -36.25357 | -64.21863 | 32689 ft | 404 kts | 359° |
| 2026-05-06 17:38 | -36.19815 | -64.20956 | 32671 ft | 404 kts | 359° |
| 2026-05-06 17:39 | -36.14210 | -64.20039 | 32688 ft | 404 kts | 359° |
| 2026-05-06 17:39 | -36.08671 | -64.19135 | 32692 ft | 404 kts | 359° |
| 2026-05-06 17:40 | -36.03096 | -64.18226 | 32688 ft | 404 kts | 359° |
| 2026-05-06 17:40 | -35.97515 | -64.17318 | 32691 ft | 405 kts | 359° |
| 2026-05-06 17:41 | -35.91926 | -64.16409 | 32689 ft | 405 kts | 359° |
| 2026-05-06 17:41 | -35.86332 | -64.15500 | 32687 ft | 405 kts | 359° |
| 2026-05-06 17:42 | -35.80737 | -64.14593 | 32688 ft | 406 kts | 359° |
| 2026-05-06 17:42 | -35.75139 | -64.13686 | 32661 ft | 406 kts | 359° |
| 2026-05-06 17:43 | -35.69549 | -64.12782 | 32681 ft | 405 kts | 359° |
| 2026-05-06 17:43 | -35.63951 | -64.11879 | 32701 ft | 406 kts | 359° |
| 2026-05-06 17:44 | -35.58338 | -64.10974 | 32683 ft | 407 kts | 359° |
| 2026-05-06 17:44 | -35.52716 | -64.10069 | 32683 ft | 408 kts | 359° |
| 2026-05-06 17:45 | -35.47084 | -64.09163 | 32674 ft | 409 kts | 358° |
| 2026-05-06 17:45 | -35.41444 | -64.08258 | 32678 ft | 409 kts | 358° |
| 2026-05-06 17:46 | -35.35799 | -64.07352 | 32683 ft | 409 kts | 358° |
| 2026-05-06 17:46 | -35.30152 | -64.06448 | 32679 ft | 409 kts | 358° |
| 2026-05-06 17:47 | -35.24510 | -64.05545 | 32669 ft | 408 kts | 358° |
| 2026-05-06 17:47 | -35.18874 | -64.04645 | 32641 ft | 408 kts | 358° |
| 2026-05-06 17:48 | -35.13264 | -64.03750 | 32672 ft | 406 kts | 358° |
| 2026-05-06 17:48 | -35.07661 | -64.02858 | 32668 ft | 406 kts | 358° |
| 2026-05-06 17:49 | -35.02053 | -64.01957 | 32639 ft | 406 kts | 358° |
| 2026-05-06 17:49 | -34.96459 | -64.01052 | 32656 ft | 406 kts | 358° |
| 2026-05-06 17:50 | -34.90857 | -64.00149 | 32665 ft | 406 kts | 358° |
| 2026-05-06 17:50 | -34.85246 | -63.99246 | 32666 ft | 407 kts | 358° |
| 2026-05-06 17:51 | -34.79623 | -63.98350 | 32626 ft | 408 kts | 358° |
| 2026-05-06 17:51 | -34.74032 | -63.97475 | 32650 ft | 408 kts | 358° |
| 2026-05-06 17:52 | -34.68396 | -63.96595 | 32657 ft | 409 kts | 358° |
| 2026-05-06 17:52 | -34.62743 | -63.95710 | 32654 ft | 410 kts | 358° |
| 2026-05-06 17:53 | -34.57077 | -63.94824 | 32649 ft | 410 kts | 358° |
| 2026-05-06 17:53 | -34.51420 | -63.93940 | 32645 ft | 410 kts | 357° |
| 2026-05-06 17:54 | -34.45752 | -63.93056 | 32645 ft | 411 kts | 357° |
| 2026-05-06 17:54 | -34.40077 | -63.92172 | 32640 ft | 411 kts | 357° |
| 2026-05-06 17:55 | -34.34401 | -63.91288 | 32645 ft | 412 kts | 358° |
| 2026-05-06 17:55 | -34.28722 | -63.90406 | 32632 ft | 411 kts | 357° |
| 2026-05-06 17:56 | -34.23993 | -63.89674 | 32632 ft | 412 kts | 357° |
| 2026-05-06 17:56 | -34.18299 | -63.88794 | 32642 ft | 413 kts | 357° |
| 2026-05-06 17:57 | -34.12595 | -63.87912 | 32638 ft | 414 kts | 357° |
| 2026-05-06 17:57 | -34.06873 | -63.87029 | 32591 ft | 414 kts | 357° |
| 2026-05-06 17:58 | -34.01163 | -63.86148 | 32645 ft | 414 kts | 357° |
| 2026-05-06 17:58 | -33.95438 | -63.85266 | 32650 ft | 415 kts | 357° |
| 2026-05-06 17:59 | -33.89699 | -63.84381 | 32654 ft | 416 kts | 357° |
| 2026-05-06 17:59 | -33.83957 | -63.83496 | 32654 ft | 416 kts | 357° |
| 2026-05-06 18:00 | -33.78218 | -63.82612 | 32647 ft | 416 kts | 357° |
| 2026-05-06 18:00 | -33.72475 | -63.81730 | 32661 ft | 416 kts | 357° |
| 2026-05-06 18:01 | -33.66762 | -63.80854 | 32658 ft | 417 kts | 357° |
| 2026-05-06 18:01 | -33.61010 | -63.79973 | 32660 ft | 417 kts | 357° |
| 2026-05-06 18:02 | -33.55254 | -63.79092 | 32660 ft | 417 kts | 357° |
| 2026-05-06 18:02 | -33.49499 | -63.78212 | 32666 ft | 417 kts | 357° |
| 2026-05-06 18:03 | -33.43742 | -63.77333 | 32664 ft | 417 kts | 357° |
| 2026-05-06 18:03 | -33.37985 | -63.76456 | 32664 ft | 417 kts | 357° |
| 2026-05-06 18:04 | -33.32235 | -63.75580 | 32630 ft | 417 kts | 356° |
| 2026-05-06 18:04 | -33.26480 | -63.74705 | 32654 ft | 417 kts | 356° |
| 2026-05-06 18:05 | -33.20723 | -63.73831 | 32660 ft | 418 kts | 356° |
| 2026-05-06 18:05 | -33.14944 | -63.72951 | 32679 ft | 419 kts | 356° |
| 2026-05-06 18:06 | -33.09144 | -63.72067 | 32686 ft | 421 kts | 356° |
| 2026-05-06 18:06 | -33.03325 | -63.71180 | 32681 ft | 422 kts | 356° |
| 2026-05-06 18:07 | -32.97478 | -63.70291 | 32689 ft | 424 kts | 356° |
| 2026-05-06 18:07 | -32.91609 | -63.69399 | 32691 ft | 425 kts | 356° |
| 2026-05-06 18:08 | -32.88753 | -63.68958 | 32669 ft | 412 kts | 356° |
| 2026-05-06 18:08 | -32.85920 | -63.68514 | 32523 ft | 400 kts | 356° |
| 2026-05-06 18:08 | -32.83190 | -63.68092 | 32254 ft | 390 kts | 356° |
| 2026-05-06 18:08 | -32.80532 | -63.67685 | 32265 ft | 385 kts | 355° |
| 2026-05-06 18:09 | -32.77865 | -63.67296 | 32005 ft | 398 kts | 356° |
| 2026-05-06 18:09 | -32.75112 | -63.66900 | 31783 ft | 410 kts | 356° |
| 2026-05-06 18:09 | -32.72245 | -63.66483 | 31553 ft | 422 kts | 357° |
| 2026-05-06 18:09 | -32.69294 | -63.66046 | 31309 ft | 431 kts | 357° |
| 2026-05-06 18:10 | -32.66326 | -63.65595 | 30815 ft | 428 kts | 358° |
| 2026-05-06 18:10 | -32.63388 | -63.65139 | 30365 ft | 422 kts | 358° |
| 2026-05-06 18:10 | -32.60496 | -63.64690 | 29872 ft | 418 kts | 358° |
| 2026-05-06 18:10 | -32.57624 | -63.64250 | 29293 ft | 413 kts | 358° |
| 2026-05-06 18:11 | -32.54791 | -63.63819 | 28780 ft | 408 kts | 358° |
| 2026-05-06 18:11 | -32.51989 | -63.63395 | 28264 ft | 403 kts | 358° |
| 2026-05-06 18:11 | -32.49221 | -63.62978 | 27774 ft | 399 kts | 358° |
| 2026-05-06 18:11 | -32.46483 | -63.62567 | 27275 ft | 395 kts | 358° |
| 2026-05-06 18:12 | -32.43773 | -63.62160 | 26791 ft | 391 kts | 359° |
| 2026-05-06 18:12 | -32.41088 | -63.61758 | 26319 ft | 387 kts | 359° |
| 2026-05-06 18:12 | -32.38429 | -63.61360 | 25848 ft | 384 kts | 359° |
| 2026-05-06 18:12 | -32.35790 | -63.60966 | 25377 ft | 381 kts | 359° |
| 2026-05-06 18:13 | -32.33204 | -63.60579 | 24888 ft | 378 kts | 359° |
| 2026-05-06 18:13 | -32.30575 | -63.60186 | 24427 ft | 376 kts | 359° |
| 2026-05-06 18:13 | -32.27986 | -63.59800 | 23969 ft | 374 kts | 360° |
| 2026-05-06 18:13 | -32.25405 | -63.59415 | 23491 ft | 373 kts | 360° |
| 2026-05-06 18:14 | -32.22835 | -63.59057 | 22899 ft | 369 kts | 356° |
| 2026-05-06 18:14 | -32.20317 | -63.59330 | 21802 ft | 363 kts | 340° |
| 2026-05-06 18:14 | -32.17973 | -63.60275 | 20937 ft | 359 kts | 331° |
| 2026-05-06 18:14 | -32.15787 | -63.61709 | 20209 ft | 352 kts | 324° |
| 2026-05-06 18:15 | -32.13744 | -63.63264 | 19547 ft | 348 kts | 323° |
| 2026-05-06 18:15 | -32.11733 | -63.64820 | 18888 ft | 345 kts | 323° |
| 2026-05-06 18:15 | -32.09735 | -63.66366 | 18179 ft | 341 kts | 323° |
| 2026-05-06 18:15 | -32.07748 | -63.67899 | 17248 ft | 342 kts | 323° |
| 2026-05-06 18:16 | -32.05753 | -63.69432 | 16411 ft | 341 kts | 323° |
| 2026-05-06 18:16 | -32.03806 | -63.70921 | 15691 ft | 337 kts | 323° |
| 2026-05-06 18:16 | -32.01854 | -63.72409 | 14968 ft | 333 kts | 323° |
| 2026-05-06 18:16 | -31.99912 | -63.73887 | 14238 ft | 331 kts | 323° |
| 2026-05-06 18:17 | -31.97989 | -63.75348 | 13594 ft | 327 kts | 323° |
| 2026-05-06 18:17 | -31.96092 | -63.76789 | 12896 ft | 322 kts | 323° |
| 2026-05-06 18:17 | -31.94213 | -63.78214 | 12148 ft | 320 kts | 323° |
| 2026-05-06 18:17 | -31.92360 | -63.79619 | 11577 ft | 313 kts | 323° |
| 2026-05-06 18:18 | -31.90550 | -63.80990 | 11102 ft | 304 kts | 323° |
| 2026-05-06 18:18 | -31.88797 | -63.82315 | 10651 ft | 296 kts | 323° |
| 2026-05-06 18:18 | -31.87110 | -63.83591 | 10478 ft | 283 kts | 323° |
| 2026-05-06 18:18 | -31.85477 | -63.84826 | 10334 ft | 273 kts | 323° |
| 2026-05-06 18:19 | -31.83889 | -63.86029 | 10234 ft | 273 kts | 323° |
| 2026-05-06 18:19 | -31.82254 | -63.87271 | 10247 ft | 284 kts | 323° |
| 2026-05-06 18:19 | -31.80612 | -63.88515 | 10213 ft | 276 kts | 323° |
| 2026-05-06 18:19 | -31.79020 | -63.89715 | 10114 ft | 267 kts | 323° |
| 2026-05-06 18:20 | -31.77482 | -63.90875 | 10010 ft | 259 kts | 323° |
| 2026-05-06 18:20 | -31.75973 | -63.92014 | 9746 ft | 257 kts | 323° |
| 2026-05-06 18:20 | -31.74472 | -63.93148 | 9471 ft | 256 kts | 323° |
| 2026-05-06 18:20 | -31.72977 | -63.94278 | 9160 ft | 255 kts | 323° |
| 2026-05-06 18:21 | -31.71479 | -63.95409 | 8836 ft | 256 kts | 323° |
| 2026-05-06 18:21 | -31.70003 | -63.96522 | 8520 ft | 256 kts | 323° |
| 2026-05-06 18:21 | -31.68503 | -63.97653 | 8216 ft | 256 kts | 323° |
| 2026-05-06 18:21 | -31.67008 | -63.98780 | 7875 ft | 256 kts | 323° |
| 2026-05-06 18:22 | -31.65509 | -63.99909 | 7552 ft | 257 kts | 323° |
| 2026-05-06 18:22 | -31.64003 | -64.01044 | 7223 ft | 258 kts | 323° |
| 2026-05-06 18:22 | -31.62491 | -64.02181 | 6897 ft | 258 kts | 323° |
| 2026-05-06 18:22 | -31.60976 | -64.03321 | 6575 ft | 259 kts | 323° |
| 2026-05-06 18:23 | -31.59458 | -64.04462 | 6253 ft | 259 kts | 324° |
| 2026-05-06 18:23 | -31.57939 | -64.05604 | 5918 ft | 260 kts | 324° |
| 2026-05-06 18:23 | -31.56412 | -64.06752 | 5606 ft | 260 kts | 325° |
| 2026-05-06 18:23 | -31.54912 | -64.07878 | 5475 ft | 253 kts | 326° |
| 2026-05-06 18:24 | -31.53446 | -64.08977 | 5354 ft | 246 kts | 326° |
| 2026-05-06 18:24 | -31.52012 | -64.10054 | 5252 ft | 244 kts | 326° |
| 2026-05-06 18:24 | -31.50580 | -64.11129 | 5152 ft | 245 kts | 327° |
| 2026-05-06 18:24 | -31.49133 | -64.12215 | 4980 ft | 250 kts | 327° |
| 2026-05-06 18:25 | -31.47653 | -64.13325 | 4716 ft | 253 kts | 328° |
| 2026-05-06 18:25 | -31.46171 | -64.14435 | 4421 ft | 253 kts | 328° |
| 2026-05-06 18:25 | -31.44686 | -64.15545 | 4121 ft | 252 kts | 327° |
| 2026-05-06 18:25 | -31.43242 | -64.16621 | 3852 ft | 239 kts | 328° |
| 2026-05-06 18:26 | -31.41848 | -64.17602 | 3513 ft | 229 kts | 329° |
| 2026-05-06 18:26 | -31.40503 | -64.18531 | 3212 ft | 219 kts | 329° |
| 2026-05-06 18:26 | -31.39227 | -64.19413 | 2919 ft | 210 kts | 329° |
| 2026-05-06 18:26 | -31.38002 | -64.20263 | 2664 ft | 198 kts | 329° |
| 2026-05-06 18:27 | -31.36785 | -64.20830 | 2403 ft | 183 kts | 359° |
| 2026-05-06 18:27 | -31.35585 | -64.20599 | 2227 ft | 169 kts | 4° |
| 2026-05-06 18:27 | -31.34483 | -64.20744 | 2010 ft | 150 kts | 353° |
| 2026-05-06 18:27 | -31.33484 | -64.20792 | 1821 ft | 139 kts | 358° |
| 2026-05-06 18:28 | -31.32518 | -64.20810 | 1652 ft | 140 kts | 359° |
| 2026-05-06 18:28 | -31.31601 | -64.20826 | 1618 ft | 116 kts | 359° |
| 2026-05-06 18:28 | -31.30942 | -64.20836 | 1612 ft | 74 kts | 359° |
| 2026-05-06 18:28 | -31.30538 | -64.20843 | 1616 ft | 52 kts | 359° |
| 2026-05-06 18:29 | -31.30205 | -64.20847 | 1615 ft | 44 kts | 359° |
| 2026-05-06 18:29 | -31.29920 | -64.20852 | 1616 ft | 38 kts | 359° |
| 2026-05-06 18:29 | -31.29733 | -64.20855 | 1616 ft | 11 kts | 359° |
| 2026-05-06 18:29 | -31.29662 | -64.20880 | 1613 ft | 11 kts | 332° |
| 2026-05-06 18:30 | -31.29605 | -64.20886 | 1612 ft | 7 kts | 47° |
| 2026-05-06 18:30 | -31.29636 | -64.20857 | 1611 ft | 7 kts | 177° |
| 2026-05-06 18:30 | -31.29693 | -64.20856 | 1611 ft | 10 kts | 179° |
| 2026-05-06 18:30 | -31.29783 | -64.20854 | 1618 ft | 16 kts | 179° |
| 2026-05-06 18:31 | -31.29915 | -64.20852 | 1619 ft | 22 kts | 179° |
| 2026-05-06 18:31 | -31.30085 | -64.20850 | 1618 ft | 27 kts | 179° |
| 2026-05-06 18:31 | -31.30288 | -64.20847 | 1619 ft | 31 kts | 179° |
| 2026-05-06 18:31 | -31.30507 | -64.20843 | 1619 ft | 31 kts | 179° |
| 2026-05-06 18:32 | -31.30698 | -64.20840 | 1614 ft | 26 kts | 179° |
| 2026-05-06 18:32 | -31.30870 | -64.20838 | 1618 ft | 24 kts | 179° |
| 2026-05-06 18:32 | -31.31031 | -64.20835 | 1613 ft | 23 kts | 179° |
| 2026-05-06 18:32 | -31.31187 | -64.20833 | 1619 ft | 22 kts | 179° |
| 2026-05-06 18:33 | -31.31317 | -64.20831 | 1616 ft | 14 kts | 179° |
| 2026-05-06 18:33 | -31.31412 | -64.20835 | 1616 ft | 13 kts | 194° |
| 2026-05-06 18:33 | -31.31467 | -64.20906 | 1613 ft | 13 kts | 270° |
| 2026-05-06 18:33 | -31.31470 | -64.21009 | 1612 ft | 13 kts | 255° |
| 2026-05-06 18:34 | -31.31511 | -64.21068 | 1614 ft | 7 kts | 209° |
| 2026-05-06 18:34 | -31.31541 | -64.21108 | 1620 ft | 7 kts | 261° |
| 2026-05-06 18:34 | -31.31548 | -64.21154 | 1618 ft | 2 kts | 257° |
| 2026-05-06 18:34 | -31.31551 | -64.21169 | 1614 ft | 1 kts | 256° |
| 2026-05-06 18:35 | -31.31551 | -64.21170 | 1614 ft | 0 kts | 256° |